createdAt,value
2023-09-03T00:00:01.371Z,1005.08
2023-09-03T00:00:11.628Z,1005.08
2023-09-03T00:00:21.921Z,1005.08
2023-09-03T00:00:32.160Z,1005.08
2023-09-03T00:00:42.464Z,1005.08
2023-09-03T00:00:52.787Z,1005.08
2023-09-03T00:01:03.063Z,1005.08
2023-09-03T00:01:13.353Z,1005.08
2023-09-03T00:01:23.641Z,1005.08
2023-09-03T00:01:33.993Z,1005.08
2023-09-03T00:01:44.322Z,1005.08
2023-09-03T00:01:54.599Z,1005.08
2023-09-03T00:02:04.944Z,1005.07
2023-09-03T00:02:15.203Z,1005.07
2023-09-03T00:02:25.466Z,1005.07
2023-09-03T00:02:35.775Z,1005.07
2023-09-03T00:02:46.061Z,1005.06
2023-09-03T00:02:56.474Z,1005.06
2023-09-03T00:03:06.678Z,1005.06
2023-09-03T00:03:17.020Z,1005.06
2023-09-03T00:03:27.425Z,1005.06
2023-09-03T00:03:37.615Z,1005.05
2023-09-03T00:03:47.954Z,1005.05
2023-09-03T00:03:58.274Z,1005.05
2023-09-03T00:04:08.647Z,1005.05
2023-09-03T00:04:18.893Z,1005.05
2023-09-03T00:04:29.170Z,1005.04
2023-09-03T00:04:39.465Z,1005.04
2023-09-03T00:04:49.739Z,1005.04
2023-09-03T00:05:00.001Z,1005.03
2023-09-03T00:05:10.258Z,1005.03
2023-09-03T00:05:20.534Z,1005.03
2023-09-03T00:05:30.824Z,1005.03
2023-09-03T00:05:41.093Z,1005.03
2023-09-03T00:05:51.366Z,1005.03
2023-09-03T00:06:01.651Z,1005.03
2023-09-03T00:06:11.917Z,1005.03
2023-09-03T00:06:22.194Z,1005.02
2023-09-03T00:06:32.469Z,1005.02
2023-09-03T00:06:42.740Z,1005.02
2023-09-03T00:06:53.005Z,1005.02
2023-09-03T00:07:03.295Z,1005.02
2023-09-03T00:07:13.573Z,1005.02
2023-09-03T00:07:23.858Z,1005.02
2023-09-03T00:07:34.148Z,1005.01
2023-09-03T00:07:44.425Z,1005.01
2023-09-03T00:07:54.697Z,1005.01
2023-09-03T00:08:04.982Z,1005.01
2023-09-03T00:08:15.223Z,1005.01
2023-09-03T00:08:25.518Z,1005.01
2023-09-03T00:08:35.795Z,1005.01
2023-09-03T00:08:46.084Z,1005.01
2023-09-03T00:08:56.382Z,1005.01
2023-09-03T00:09:06.653Z,1005.01
2023-09-03T00:09:16.923Z,1005.01
2023-09-03T00:09:27.199Z,1005.00
2023-09-03T00:09:37.491Z,1005.00
2023-09-03T00:09:47.788Z,1005.00
2023-09-03T00:09:58.075Z,1005.00
2023-09-03T00:10:08.354Z,1005.00
2023-09-03T00:10:18.646Z,1005.00
2023-09-03T00:10:28.920Z,1005.00
2023-09-03T00:10:39.216Z,1005.00
2023-09-03T00:10:49.506Z,1005.00
2023-09-03T00:10:59.750Z,1005.00
2023-09-03T00:11:10.035Z,1005.00
2023-09-03T00:11:20.307Z,1005.00
2023-09-03T00:11:30.580Z,1005.00
2023-09-03T00:11:40.859Z,1005.00
2023-09-03T00:11:51.145Z,1005.00
2023-09-03T00:12:01.426Z,1004.99
2023-09-03T00:12:11.692Z,1004.99
2023-09-03T00:12:21.971Z,1005.00
2023-09-03T00:12:32.243Z,1004.99
2023-09-03T00:12:42.527Z,1004.99
2023-09-03T00:12:52.815Z,1004.99
2023-09-03T00:13:03.093Z,1004.99
2023-09-03T00:13:13.384Z,1004.99
2023-09-03T00:13:23.663Z,1004.99
2023-09-03T00:13:33.961Z,1004.99
2023-09-03T00:13:44.255Z,1004.99
2023-09-03T00:13:54.519Z,1004.99
2023-09-03T00:14:04.806Z,1004.99
2023-09-03T00:14:15.103Z,1004.99
2023-09-03T00:14:25.343Z,1004.99
2023-09-03T00:14:35.629Z,1004.99
2023-09-03T00:14:45.908Z,1004.98
2023-09-03T00:14:56.211Z,1004.99
2023-09-03T00:15:06.459Z,1004.99
2023-09-03T00:15:16.749Z,1004.99
2023-09-03T00:15:27.019Z,1004.98
2023-09-03T00:15:37.349Z,1004.99
2023-09-03T00:15:47.623Z,1004.98
2023-09-03T00:15:57.942Z,1004.98
2023-09-03T00:16:08.240Z,1004.98
2023-09-03T00:16:18.532Z,1004.98
2023-09-03T00:16:28.837Z,1004.98
2023-09-03T00:16:39.147Z,1004.98
2023-09-03T00:16:49.414Z,1004.98
2023-09-03T00:16:59.702Z,1004.97
2023-09-03T00:17:09.992Z,1004.97
2023-09-03T00:17:20.269Z,1004.97
2023-09-03T00:17:30.581Z,1004.97
2023-09-03T00:17:40.866Z,1004.97
2023-09-03T00:17:51.189Z,1004.97
2023-09-03T00:18:01.574Z,1004.97
2023-09-03T00:18:14.260Z,1004.97
2023-09-03T00:18:22.421Z,1004.97
2023-09-03T00:18:32.424Z,1004.97
2023-09-03T00:18:42.692Z,1004.97
2023-09-03T00:18:52.955Z,1004.96
2023-09-03T00:19:03.218Z,1004.96
2023-09-03T00:19:13.492Z,1004.96
2023-09-03T00:19:23.758Z,1004.96
2023-09-03T00:19:34.117Z,1004.95
2023-09-03T00:19:44.356Z,1004.95
2023-09-03T00:19:54.632Z,1004.95
2023-09-03T00:20:04.900Z,1004.95
2023-09-03T00:20:15.184Z,1004.95
2023-09-03T00:20:25.471Z,1004.94
2023-09-03T00:20:35.734Z,1004.94
2023-09-03T00:20:46.015Z,1004.94
2023-09-03T00:20:56.308Z,1004.94
2023-09-03T00:21:06.588Z,1004.94
2023-09-03T00:21:16.867Z,1004.94
2023-09-03T00:21:27.124Z,1004.93
2023-09-03T00:21:37.396Z,1004.93
2023-09-03T00:21:47.678Z,1004.93
2023-09-03T00:21:57.937Z,1004.93
2023-09-03T00:22:08.237Z,1004.93
2023-09-03T00:22:18.514Z,1004.92
2023-09-03T00:22:28.810Z,1004.92
2023-09-03T00:22:39.094Z,1004.91
2023-09-03T00:22:49.362Z,1004.91
2023-09-03T00:22:59.642Z,1004.91
2023-09-03T00:23:09.919Z,1004.91
2023-09-03T00:23:20.191Z,1004.91
2023-09-03T00:23:30.482Z,1004.91
2023-09-03T00:23:40.742Z,1004.90
2023-09-03T00:23:51.019Z,1004.90
2023-09-03T00:24:01.289Z,1004.90
2023-09-03T00:24:11.601Z,1004.90
2023-09-03T00:24:21.887Z,1004.90
2023-09-03T00:24:32.155Z,1004.89
2023-09-03T00:24:42.446Z,1004.89
2023-09-03T00:24:52.696Z,1004.89
2023-09-03T00:25:02.967Z,1004.89
2023-09-03T00:25:13.263Z,1004.89
2023-09-03T00:25:23.522Z,1004.89
2023-09-03T00:25:33.813Z,1004.89
2023-09-03T00:25:44.072Z,1004.88
2023-09-03T00:25:54.354Z,1004.88
2023-09-03T00:26:04.624Z,1004.88
2023-09-03T00:26:14.929Z,1004.88
2023-09-03T00:26:25.163Z,1004.88
2023-09-03T00:26:35.434Z,1004.88
2023-09-03T00:26:45.720Z,1004.87
2023-09-03T00:26:55.997Z,1004.88
2023-09-03T00:27:06.302Z,1004.87
2023-09-03T00:27:16.569Z,1004.87
2023-09-03T00:27:26.835Z,1004.87
2023-09-03T00:27:37.111Z,1004.87
2023-09-03T00:27:47.378Z,1004.87
2023-09-03T00:27:57.652Z,1004.87
2023-09-03T00:28:07.940Z,1004.86
2023-09-03T00:28:18.583Z,1004.86
2023-09-03T00:28:28.517Z,1004.86
2023-09-03T00:28:38.819Z,1004.86
2023-09-03T00:28:49.065Z,1004.86
2023-09-03T00:28:59.340Z,1004.86
2023-09-03T00:29:09.624Z,1004.86
2023-09-03T00:29:19.902Z,1004.85
2023-09-03T00:29:30.166Z,1004.85
2023-09-03T00:29:40.439Z,1004.85
2023-09-03T00:29:50.745Z,1004.85
2023-09-03T00:30:01.007Z,1004.85
2023-09-03T00:30:11.279Z,1004.85
2023-09-03T00:30:21.564Z,1004.84
2023-09-03T00:30:31.857Z,1004.84
2023-09-03T00:30:42.250Z,1004.84
2023-09-03T00:30:52.498Z,1004.84
2023-09-03T00:31:02.853Z,1004.84
2023-09-03T00:31:13.221Z,1004.84
2023-09-03T00:31:23.542Z,1004.83
2023-09-03T00:31:33.819Z,1004.84
2023-09-03T00:31:44.105Z,1004.84
2023-09-03T00:31:54.400Z,1004.84
2023-09-03T00:32:04.674Z,1004.84
2023-09-03T00:32:14.974Z,1004.84
2023-09-03T00:32:25.269Z,1004.84
2023-09-03T00:32:35.528Z,1004.84
2023-09-03T00:32:45.844Z,1004.84
2023-09-03T00:32:56.133Z,1004.84
2023-09-03T00:33:06.452Z,1004.85
2023-09-03T00:33:16.708Z,1004.85
2023-09-03T00:33:26.977Z,1004.85
2023-09-03T00:33:37.257Z,1004.85
2023-09-03T00:33:47.526Z,1004.85
2023-09-03T00:33:57.849Z,1004.85
2023-09-03T00:34:08.176Z,1004.85
2023-09-03T00:34:18.414Z,1004.86
2023-09-03T00:34:28.693Z,1004.86
2023-09-03T00:34:39.011Z,1004.86
2023-09-03T00:34:49.313Z,1004.86
2023-09-03T00:34:59.566Z,1004.86
2023-09-03T00:35:09.859Z,1004.86
2023-09-03T00:35:20.115Z,1004.86
2023-09-03T00:35:30.403Z,1004.87
2023-09-03T00:35:40.678Z,1004.87
2023-09-03T00:35:50.952Z,1004.87
2023-09-03T00:36:01.268Z,1004.87
2023-09-03T00:36:11.579Z,1004.87
2023-09-03T00:36:21.829Z,1004.87
2023-09-03T00:36:32.129Z,1004.88
2023-09-03T00:36:42.402Z,1004.88
2023-09-03T00:36:52.679Z,1004.88
2023-09-03T00:37:02.984Z,1004.88
2023-09-03T00:37:13.253Z,1004.89
2023-09-03T00:37:23.511Z,1004.89
2023-09-03T00:37:33.774Z,1004.89
2023-09-03T00:37:44.042Z,1004.89
2023-09-03T00:37:54.317Z,1004.89
2023-09-03T00:38:04.601Z,1004.89
2023-09-03T00:38:14.873Z,1004.90
2023-09-03T00:38:25.158Z,1004.90
2023-09-03T00:38:35.427Z,1004.90
2023-09-03T00:38:45.694Z,1004.90
2023-09-03T00:38:55.965Z,1004.90
2023-09-03T00:39:06.234Z,1004.90
2023-09-03T00:39:16.520Z,1004.90
2023-09-03T00:39:26.794Z,1004.90
2023-09-03T00:39:37.075Z,1004.90
2023-09-03T00:39:47.337Z,1004.90
2023-09-03T00:39:57.621Z,1004.90
2023-09-03T00:40:07.894Z,1004.90
2023-09-03T00:40:18.181Z,1004.90
2023-09-03T00:40:28.453Z,1004.90
2023-09-03T00:40:38.762Z,1004.90
2023-09-03T00:40:49.028Z,1004.90
2023-09-03T00:40:59.309Z,1004.90
2023-09-03T00:41:09.603Z,1004.90
2023-09-03T00:41:19.983Z,1004.89
2023-09-03T00:41:30.260Z,1004.89
2023-09-03T00:41:40.540Z,1004.89
2023-09-03T00:41:50.801Z,1004.89
2023-09-03T00:42:01.077Z,1004.89
2023-09-03T00:42:11.363Z,1004.89
2023-09-03T00:42:21.635Z,1004.89
2023-09-03T00:42:31.945Z,1004.88
2023-09-03T00:42:42.212Z,1004.89
2023-09-03T00:42:52.472Z,1004.88
2023-09-03T00:43:02.764Z,1004.88
2023-09-03T00:43:13.049Z,1004.88
2023-09-03T00:43:23.334Z,1004.88
2023-09-03T00:43:33.644Z,1004.88
2023-09-03T00:43:43.914Z,1004.88
2023-09-03T00:43:54.170Z,1004.87
2023-09-03T00:44:04.451Z,1004.87
2023-09-03T00:44:14.713Z,1004.87
2023-09-03T00:44:24.984Z,1004.87
2023-09-03T00:44:35.270Z,1004.87
2023-09-03T00:44:45.544Z,1004.87
2023-09-03T00:44:55.821Z,1004.87
2023-09-03T00:45:06.110Z,1004.86
2023-09-03T00:45:16.372Z,1004.86
2023-09-03T00:45:26.657Z,1004.86
2023-09-03T00:45:36.930Z,1004.86
2023-09-03T00:45:47.252Z,1004.86
2023-09-03T00:45:57.543Z,1004.86
2023-09-03T00:46:07.958Z,1004.86
2023-09-03T00:46:18.090Z,1004.86
2023-09-03T00:46:28.448Z,1004.86
2023-09-03T00:46:38.738Z,1004.86
2023-09-03T00:46:48.982Z,1004.86
2023-09-03T00:46:59.257Z,1004.87
2023-09-03T00:47:09.517Z,1004.86
2023-09-03T00:47:19.790Z,1004.87
2023-09-03T00:47:30.106Z,1004.87
2023-09-03T00:47:40.379Z,1004.87
2023-09-03T00:47:50.665Z,1004.87
2023-09-03T00:48:01.000Z,1004.87
2023-09-03T00:48:11.354Z,1004.87
2023-09-03T00:48:21.859Z,1004.88
2023-09-03T00:48:31.944Z,1004.88
2023-09-03T00:48:42.237Z,1004.88
2023-09-03T00:48:52.509Z,1004.88
2023-09-03T00:49:02.797Z,1004.89
2023-09-03T00:49:13.061Z,1004.89
2023-09-03T00:49:23.340Z,1004.89
2023-09-03T00:49:33.614Z,1004.89
2023-09-03T00:49:43.875Z,1004.90
2023-09-03T00:49:54.155Z,1004.90
2023-09-03T00:50:04.458Z,1004.90
2023-09-03T00:50:14.718Z,1004.91
2023-09-03T00:50:25.013Z,1004.91
2023-09-03T00:50:35.299Z,1004.91
2023-09-03T00:50:45.585Z,1004.91
2023-09-03T00:50:55.876Z,1004.92
2023-09-03T00:51:06.159Z,1004.92
2023-09-03T00:51:16.430Z,1004.92
2023-09-03T00:51:26.713Z,1004.93
2023-09-03T00:51:36.984Z,1004.93
2023-09-03T00:51:47.253Z,1004.93
2023-09-03T00:51:57.525Z,1004.94
2023-09-03T00:52:07.803Z,1004.94
2023-09-03T00:52:18.073Z,1004.94
2023-09-03T00:52:28.341Z,1004.94
2023-09-03T00:52:38.629Z,1004.95
2023-09-03T00:52:48.922Z,1004.95
2023-09-03T00:52:59.212Z,1004.96
2023-09-03T00:53:09.482Z,1004.96
2023-09-03T00:53:19.760Z,1004.96
2023-09-03T00:53:30.038Z,1004.96
2023-09-03T00:53:40.296Z,1004.96
2023-09-03T00:53:50.572Z,1004.97
2023-09-03T00:54:00.853Z,1004.97
2023-09-03T00:54:11.139Z,1004.97
2023-09-03T00:54:21.398Z,1004.97
2023-09-03T00:54:31.663Z,1004.97
2023-09-03T00:54:41.949Z,1004.97
2023-09-03T00:54:52.233Z,1004.97
2023-09-03T00:55:02.603Z,1004.97
2023-09-03T00:55:12.854Z,1004.97
2023-09-03T00:55:23.129Z,1004.98
2023-09-03T00:55:33.448Z,1004.98
2023-09-03T00:55:43.712Z,1004.97
2023-09-03T00:55:53.991Z,1004.98
2023-09-03T00:56:04.259Z,1004.98
2023-09-03T00:56:14.558Z,1004.98
2023-09-03T00:56:24.806Z,1004.98
2023-09-03T00:56:35.097Z,1004.98
2023-09-03T00:56:45.367Z,1004.98
2023-09-03T00:56:55.649Z,1004.98
2023-09-03T00:57:05.932Z,1004.98
2023-09-03T00:57:16.193Z,1004.99
2023-09-03T00:58:07.816Z,1005.01
2023-09-03T00:58:18.193Z,1005.00
2023-09-03T00:58:28.411Z,1005.00
2023-09-03T00:58:38.717Z,1005.00
2023-09-03T00:58:49.615Z,1005.00
2023-09-03T00:58:59.226Z,1005.00
2023-09-03T00:59:09.489Z,1005.00
2023-09-03T00:59:19.773Z,1005.00
2023-09-03T00:59:30.044Z,1005.00
2023-09-03T00:59:40.612Z,1005.00
2023-09-03T00:59:50.673Z,1005.00
2023-09-03T01:00:00.938Z,1005.01
2023-09-03T01:00:11.214Z,1005.01
2023-09-03T01:00:24.121Z,1005.01
2023-09-03T01:00:31.765Z,1005.00
2023-09-03T01:00:44.594Z,1005.01
2023-09-03T01:00:53.172Z,1005.00
2023-09-03T01:01:02.584Z,1005.00
2023-09-03T01:01:12.863Z,1005.00
2023-09-03T01:01:33.378Z,1005.00
2023-09-03T01:01:43.660Z,1005.00
2023-09-03T01:01:53.954Z,1005.00
2023-09-03T01:02:04.196Z,1005.00
2023-09-03T01:02:14.467Z,1005.00
2023-09-03T01:02:24.737Z,1005.00
2023-09-03T01:02:35.012Z,1005.00
2023-09-03T01:02:45.276Z,1005.00
2023-09-03T01:02:55.609Z,1005.00
2023-09-03T01:03:06.717Z,1005.00
2023-09-03T01:03:16.424Z,1005.00
2023-09-03T01:03:26.789Z,1005.00
2023-09-03T01:03:37.488Z,1005.00
2023-09-03T01:03:47.567Z,1005.01
2023-09-03T01:03:57.979Z,1005.01
2023-09-03T01:04:08.135Z,1005.01
2023-09-03T09:25:48.809Z,1008.53
2023-09-03T09:26:12.392Z,1008.54
2023-09-03T09:26:37.296Z,1008.53
2023-09-03T09:26:47.823Z,1008.51
2023-09-03T09:26:57.702Z,1008.51
2023-09-03T09:27:07.900Z,1008.51
2023-09-03T09:27:18.106Z,1008.50
2023-09-03T09:27:28.291Z,1008.50
2023-09-03T09:27:38.468Z,1008.49
2023-09-03T09:27:48.641Z,1008.50
2023-09-03T09:27:58.847Z,1008.50
2023-09-03T09:28:09.023Z,1008.50
2023-09-03T09:28:19.208Z,1008.50
2023-09-03T09:28:29.399Z,1008.49
2023-09-03T09:29:18.260Z,1008.50
2023-09-03T09:29:27.879Z,1008.48
2023-09-03T09:29:38.129Z,1008.48
2023-09-03T09:29:48.288Z,1008.49
2023-09-03T09:29:58.670Z,1008.48
2023-09-03T09:30:08.819Z,1008.48
2023-09-03T09:30:19.141Z,1008.47
2023-09-03T09:30:29.458Z,1008.47
2023-09-03T09:30:39.809Z,1008.47
2023-09-03T09:30:50.177Z,1008.46
2023-09-03T09:31:00.473Z,1008.46
2023-09-03T09:31:10.832Z,1008.46
2023-09-03T09:31:20.995Z,1008.46
2023-09-03T09:32:09.409Z,1008.45
2023-09-03T09:32:21.478Z,1008.43
2023-09-03T09:32:29.817Z,1008.43
2023-09-03T09:32:40.101Z,1008.43
2023-09-03T09:32:50.363Z,1008.42
2023-09-03T09:33:00.655Z,1008.42
2023-09-03T09:33:10.950Z,1008.42
2023-09-03T09:33:31.678Z,1008.41
2023-09-03T09:33:43.474Z,1008.41
2023-09-03T09:33:52.202Z,1008.41
2023-09-03T09:34:02.441Z,1008.40
2023-09-03T09:34:12.689Z,1008.40
2023-09-03T09:34:22.949Z,1008.40
2023-09-03T09:34:33.195Z,1008.40
2023-09-03T09:34:43.463Z,1008.39
2023-09-03T09:34:53.707Z,1008.40
2023-09-03T09:35:03.962Z,1008.40
2023-09-03T09:35:14.212Z,1008.40
2023-09-03T09:35:24.486Z,1008.39
2023-09-03T09:35:34.730Z,1008.39
2023-09-03T09:35:44.982Z,1008.39
2023-09-03T09:35:55.334Z,1008.39
2023-09-03T09:36:05.626Z,1008.39
2023-09-03T09:36:15.880Z,1008.39
2023-09-03T09:36:26.146Z,1008.38
2023-09-03T09:36:36.932Z,1008.38
2023-09-03T09:36:46.675Z,1008.38
2023-09-03T09:36:59.437Z,1008.37
2023-09-03T09:37:07.330Z,1008.37
2023-09-03T09:37:17.584Z,1008.36
2023-09-03T09:37:27.838Z,1008.36
2023-09-03T09:37:38.954Z,1008.36
2023-09-03T09:37:48.476Z,1008.35
2023-09-03T09:38:09.174Z,1008.34
2023-09-03T09:38:19.428Z,1008.33
2023-09-03T09:38:29.676Z,1008.33
2023-09-03T09:38:39.947Z,1008.33
2023-09-03T09:38:50.184Z,1008.32
2023-09-03T09:39:00.461Z,1008.32
2023-09-03T09:39:10.724Z,1008.31
2023-09-03T09:39:22.786Z,1008.31
2023-09-03T09:39:31.276Z,1008.30
2023-09-03T09:39:41.532Z,1008.30
2023-09-03T09:39:51.796Z,1008.30
2023-09-03T09:40:02.090Z,1008.29
2023-09-03T09:40:12.311Z,1008.29
2023-09-03T09:40:22.568Z,1008.28
2023-09-03T09:40:32.887Z,1008.27
2023-09-03T09:40:43.171Z,1008.27
2023-09-03T09:40:53.505Z,1008.26
2023-09-03T09:41:03.733Z,1008.26
2023-09-03T09:41:14.003Z,1008.26
2023-09-03T09:41:24.275Z,1008.26
2023-09-03T09:41:34.543Z,1008.26
2023-09-03T09:41:44.815Z,1008.25
2023-09-03T09:41:55.075Z,1008.25
2023-09-03T09:42:05.328Z,1008.25
2023-09-03T09:42:15.576Z,1008.25
2023-09-03T09:42:25.833Z,1008.25
2023-09-03T09:42:36.090Z,1008.25
2023-09-03T09:42:46.940Z,1008.24
2023-09-03T09:42:56.727Z,1008.25
2023-09-03T09:43:06.976Z,1008.24
2023-09-03T09:43:17.249Z,1008.24
2023-09-03T09:43:27.490Z,1008.25
2023-09-03T09:43:37.749Z,1008.25
2023-09-03T09:43:48.008Z,1008.25
2023-09-03T09:43:58.257Z,1008.25
2023-09-03T09:44:08.512Z,1008.25
2023-09-03T09:44:18.765Z,1008.26
2023-09-03T09:44:29.022Z,1008.26
2023-09-03T09:44:39.275Z,1008.26
2023-09-03T09:44:49.537Z,1008.26
2023-09-03T09:44:59.797Z,1008.26
2023-09-03T09:45:10.042Z,1008.27
2023-09-03T09:45:20.310Z,1008.27
2023-09-03T09:45:30.550Z,1008.27
2023-09-03T09:45:44.156Z,1008.27
2023-09-03T09:45:51.085Z,1008.27
2023-09-03T09:46:01.344Z,1008.28
2023-09-03T09:46:11.610Z,1008.27
2023-09-03T09:46:21.895Z,1008.27
2023-09-03T09:46:32.216Z,1008.27
2023-09-03T09:46:42.544Z,1008.28
2023-09-03T09:46:52.862Z,1008.28
2023-09-03T09:47:03.114Z,1008.28
2023-09-03T09:47:13.370Z,1008.28
2023-09-03T09:47:23.650Z,1008.27
2023-09-03T09:47:33.914Z,1008.27
2023-09-03T09:47:44.174Z,1008.27
2023-09-03T09:47:54.432Z,1008.28
2023-09-03T09:48:04.710Z,1008.28
2023-09-03T09:48:14.937Z,1008.27
2023-09-03T09:48:25.193Z,1008.27
2023-09-03T09:48:35.457Z,1008.28
2023-09-03T09:48:45.704Z,1008.28
2023-09-03T09:48:55.960Z,1008.28
2023-09-03T09:49:06.216Z,1008.27
2023-09-03T09:49:16.467Z,1008.28
2023-09-03T09:49:26.919Z,1008.28
2023-09-03T09:49:37.195Z,1008.28
2023-09-03T09:49:47.440Z,1008.28
2023-09-03T09:49:57.690Z,1008.28
2023-09-03T09:50:07.944Z,1008.28
2023-09-03T09:50:18.195Z,1008.28
2023-09-03T09:50:28.450Z,1008.28
2023-09-03T09:50:38.724Z,1008.29
2023-09-03T09:50:49.037Z,1008.28
2023-09-03T09:50:59.435Z,1008.28
2023-09-03T09:51:09.655Z,1008.28
2023-09-03T09:51:19.910Z,1008.28
2023-09-03T09:51:30.165Z,1008.28
2023-09-03T09:51:40.421Z,1008.28
2023-09-03T09:51:50.674Z,1008.28
2023-09-03T09:52:00.926Z,1008.29
2023-09-03T09:52:11.185Z,1008.28
2023-09-03T09:52:21.445Z,1008.28
2023-09-03T09:52:31.700Z,1008.28
2023-09-03T09:52:41.955Z,1008.28
2023-09-03T09:52:52.216Z,1008.28
2023-09-03T09:53:02.476Z,1008.28
2023-09-03T09:53:12.727Z,1008.28
2023-09-03T09:53:23.336Z,1008.28
2023-09-03T09:53:33.302Z,1008.28
2023-09-03T09:53:43.559Z,1008.28
2023-09-03T09:53:53.824Z,1008.27
2023-09-03T09:54:04.092Z,1008.27
2023-09-03T09:54:14.334Z,1008.27
2023-09-03T09:54:24.591Z,1008.27
2023-09-03T09:54:34.844Z,1008.27
2023-09-03T09:54:45.101Z,1008.26
2023-09-03T09:54:55.355Z,1008.26
2023-09-03T09:55:05.618Z,1008.26
2023-09-03T09:55:15.944Z,1008.25
2023-09-03T09:55:26.215Z,1008.26
2023-09-03T09:55:36.489Z,1008.26
2023-09-03T09:55:46.750Z,1008.25
2023-09-03T09:55:57.022Z,1008.25
2023-09-03T09:56:07.938Z,1008.25
2023-09-03T09:56:17.571Z,1008.25
2023-09-03T09:56:27.832Z,1008.25
2023-09-03T09:56:38.114Z,1008.25
2023-09-03T09:56:50.488Z,1008.25
2023-09-03T09:56:58.763Z,1008.26
2023-09-03T09:57:09.024Z,1008.25
2023-09-03T09:57:19.275Z,1008.26
2023-09-03T09:57:29.538Z,1008.26
2023-09-03T09:57:39.774Z,1008.25
2023-09-03T09:57:50.046Z,1008.26
2023-09-03T09:58:00.313Z,1008.25
2023-09-03T09:58:10.561Z,1008.25
2023-09-03T09:58:20.820Z,1008.25
2023-09-03T09:58:31.072Z,1008.26
2023-09-03T09:58:41.323Z,1008.26
2023-09-03T09:58:51.579Z,1008.26
2023-09-03T09:59:01.842Z,1008.26
2023-09-03T09:59:12.103Z,1008.26
2023-09-03T09:59:22.351Z,1008.25
2023-09-03T09:59:32.600Z,1008.26
2023-09-03T09:59:42.857Z,1008.26
2023-09-03T09:59:53.242Z,1008.26
2023-09-03T10:00:03.507Z,1008.25
2023-09-03T10:00:13.797Z,1008.26
2023-09-03T10:00:24.087Z,1008.26
2023-09-03T10:00:34.394Z,1008.26
2023-09-03T10:00:44.775Z,1008.26
2023-09-03T10:00:55.089Z,1008.26
2023-09-03T10:01:05.458Z,1008.26
2023-09-03T10:01:15.774Z,1008.27
2023-09-03T10:01:26.018Z,1008.27
2023-09-03T10:01:36.266Z,1008.27
2023-09-03T10:01:46.536Z,1008.28
2023-09-03T10:01:56.776Z,1008.28
2023-09-03T10:02:07.041Z,1008.29
2023-09-03T10:02:17.304Z,1008.29
2023-09-03T10:02:27.586Z,1008.29
2023-09-03T10:02:37.866Z,1008.30
2023-09-03T10:02:49.475Z,1008.30
2023-09-03T10:02:59.203Z,1008.30
2023-09-03T10:03:08.940Z,1008.31
2023-09-03T10:03:19.262Z,1008.31
2023-09-03T10:03:29.627Z,1008.31
2023-09-03T10:03:39.943Z,1008.33
2023-09-03T10:03:50.259Z,1008.33
2023-09-03T10:04:00.534Z,1008.33
2023-09-03T10:04:10.830Z,1008.34
2023-09-03T10:04:21.052Z,1008.34
2023-09-03T10:04:31.308Z,1008.34
2023-09-03T10:04:41.595Z,1008.35
2023-09-03T10:04:51.850Z,1008.35
2023-09-03T10:05:02.116Z,1008.36
2023-09-03T10:05:12.418Z,1008.36
2023-09-03T10:05:22.664Z,1008.37
2023-09-03T10:05:32.919Z,1008.38
2023-09-03T10:05:43.225Z,1008.38
2023-09-03T10:05:53.458Z,1008.38
2023-09-03T10:06:03.718Z,1008.38
2023-09-03T10:06:13.973Z,1008.39
2023-09-03T10:06:24.244Z,1008.39
2023-09-03T10:06:34.520Z,1008.40
2023-09-03T10:06:44.784Z,1008.40
2023-09-03T10:06:55.049Z,1008.40
2023-09-03T10:07:05.315Z,1008.40
2023-09-03T10:07:15.580Z,1008.40
2023-09-03T10:07:25.852Z,1008.40
2023-09-03T10:07:36.124Z,1008.40
2023-09-03T10:07:46.387Z,1008.40
2023-09-03T10:07:56.660Z,1008.41
2023-09-03T10:08:06.930Z,1008.42
2023-09-03T10:08:17.942Z,1008.42
2023-09-03T10:08:27.500Z,1008.42
2023-09-03T10:08:37.771Z,1008.42
2023-09-03T10:08:51.293Z,1008.45
2023-09-03T10:08:58.442Z,1008.46
2023-09-03T10:09:08.725Z,1008.47
2023-09-03T10:09:18.982Z,1008.47
2023-09-03T10:09:29.253Z,1008.48
2023-09-03T10:09:39.505Z,1008.48
2023-09-03T10:09:49.793Z,1008.48
2023-09-03T10:10:00.060Z,1008.48
2023-09-03T10:10:10.313Z,1008.49
2023-09-03T10:10:20.578Z,1008.49
2023-09-03T10:10:30.847Z,1008.49
2023-09-03T10:10:41.148Z,1008.49
2023-09-03T10:10:51.385Z,1008.50
2023-09-03T10:11:01.668Z,1008.50
2023-09-03T10:11:11.910Z,1008.51
2023-09-03T10:11:22.249Z,1008.51
2023-09-03T10:11:32.507Z,1008.51
2023-09-03T10:11:42.772Z,1008.52
2023-09-03T10:11:53.036Z,1008.51
2023-09-03T10:12:03.306Z,1008.51
2023-09-03T10:12:13.578Z,1008.51
2023-09-03T10:12:23.855Z,1008.52
2023-09-03T10:12:34.115Z,1008.52
2023-09-03T10:12:44.378Z,1008.52
2023-09-03T10:12:54.647Z,1008.52
2023-09-03T10:13:05.788Z,1008.52
2023-09-03T10:13:15.346Z,1008.52
2023-09-03T10:13:25.614Z,1008.52
2023-09-03T10:13:36.922Z,1008.52
2023-09-03T10:13:46.247Z,1008.52
2023-09-03T10:13:56.530Z,1008.53
2023-09-03T10:14:06.800Z,1008.53
2023-09-03T10:14:17.107Z,1008.52
2023-09-03T10:14:27.427Z,1008.53
2023-09-03T10:14:37.674Z,1008.53
2023-09-03T10:14:47.930Z,1008.53
2023-09-03T10:14:58.192Z,1008.53
2023-09-03T10:15:08.478Z,1008.52
2023-09-03T10:15:18.766Z,1008.53
2023-09-03T10:15:28.998Z,1008.53
2023-09-03T10:15:39.249Z,1008.54
2023-09-03T10:15:49.532Z,1008.54
2023-09-03T10:15:59.798Z,1008.54
2023-09-03T10:16:10.071Z,1008.54
2023-09-03T10:16:20.341Z,1008.54
2023-09-03T10:16:33.736Z,1008.54
2023-09-03T10:16:41.145Z,1008.54
2023-09-03T10:16:51.540Z,1008.54
2023-09-03T10:17:01.867Z,1008.54
2023-09-03T10:17:12.121Z,1008.54
2023-09-03T10:17:22.399Z,1008.54
2023-09-03T10:17:32.666Z,1008.54
2023-09-03T10:17:43.011Z,1008.54
2023-09-03T10:17:53.312Z,1008.54
2023-09-03T10:18:03.621Z,1008.54
2023-09-03T10:18:13.871Z,1008.54
2023-09-03T10:18:26.007Z,1008.53
2023-09-03T10:18:34.393Z,1008.53
2023-09-03T10:18:44.667Z,1008.53
2023-09-03T10:18:54.941Z,1008.53
2023-09-03T10:19:05.217Z,1008.53
2023-09-03T10:19:15.477Z,1008.53
2023-09-03T10:19:36.194Z,1008.53
2023-09-03T10:19:46.456Z,1008.53
2023-09-03T10:19:56.725Z,1008.53
2023-09-03T10:20:07.024Z,1008.53
2023-09-03T10:20:17.271Z,1008.53
2023-09-03T10:20:27.548Z,1008.52
2023-09-03T10:20:37.810Z,1008.52
2023-09-03T10:20:48.080Z,1008.53
2023-09-03T10:20:58.336Z,1008.53
2023-09-03T10:21:08.629Z,1008.53
2023-09-03T10:21:18.886Z,1008.53
2023-09-03T10:21:51.001Z,1008.53
2023-09-03T10:21:54.477Z,1008.53
2023-09-03T10:22:01.484Z,1008.54
2023-09-03T10:22:10.789Z,1008.54
2023-09-03T10:22:21.065Z,1008.54
2023-09-03T10:22:31.330Z,1008.54
2023-09-03T10:22:41.599Z,1008.55
2023-09-03T10:22:51.843Z,1008.55
2023-09-03T10:23:03.364Z,1008.55
2023-09-03T10:23:12.944Z,1008.55
2023-09-03T10:23:23.267Z,1008.55
2023-09-03T10:23:33.220Z,1008.55
2023-09-03T10:23:43.469Z,1008.55
2023-09-03T10:23:53.750Z,1008.55
2023-09-03T10:24:03.987Z,1008.54
2023-09-03T10:24:14.240Z,1008.54
2023-09-03T10:24:24.522Z,1008.54
2023-09-03T10:24:34.800Z,1008.54
2023-09-03T10:24:45.057Z,1008.54
2023-09-03T10:24:55.312Z,1008.54
2023-09-03T10:25:05.564Z,1008.55
2023-09-03T10:25:15.852Z,1008.54
2023-09-03T10:25:26.078Z,1008.54
2023-09-03T10:25:36.344Z,1008.54
2023-09-03T10:26:00.116Z,1008.54
2023-09-03T10:26:05.246Z,1008.53
2023-09-03T10:26:08.327Z,1008.53
2023-09-03T10:26:17.622Z,1008.53
2023-09-03T10:26:27.882Z,1008.53
2023-09-03T10:26:38.149Z,1008.53
2023-09-03T10:26:48.427Z,1008.52
2023-09-03T10:26:58.696Z,1008.53
2023-09-03T10:27:08.935Z,1008.53
2023-09-03T10:27:19.193Z,1008.53
2023-09-03T10:27:29.958Z,1008.53
2023-09-03T10:27:39.747Z,1008.53
2023-09-03T10:27:50.009Z,1008.52
2023-09-03T10:28:00.260Z,1008.52
2023-09-03T10:28:10.532Z,1008.52
2023-09-03T10:28:20.786Z,1008.52
2023-09-03T10:28:31.045Z,1008.52
2023-09-03T10:28:41.310Z,1008.53
2023-09-03T10:28:51.552Z,1008.53
2023-09-03T10:29:01.809Z,1008.53